TimeMST,TemperatureF,Dew PointF,Humidity,Sea Level PressureIn,VisibilityMPH,Wind Direction,Wind SpeedMPH,Gust SpeedMPH,PrecipitationIn,Events,Conditions,WindDirDegrees,DateUTC
12:55 AM,16.3,13.8,90,30.30,10.0,Calm,Calm,-,N/A,,Clear,0,2013-01-22 07:55:00
1:15 AM,13.1,9.7,86,30.30,10.0,ENE,3.5,-,N/A,,Clear,70,2013-01-22 08:15:00
1:35 AM,12.7,10.2,90,30.31,10.0,Calm,Calm,-,N/A,,Clear,0,2013-01-22 08:35:00
1:55 AM,12.7,7.7,80,30.33,10.0,Calm,Calm,-,N/A,,Clear,0,2013-01-22 08:55:00
2:15 AM,9.7,7.2,90,30.32,10.0,Calm,Calm,-,N/A,,Clear,0,2013-01-22 09:15:00
2:35 AM,11.1,9.5,93,30.33,10.0,Calm,Calm,-,N/A,,Clear,0,2013-01-22 09:35:00
2:55 AM,12.9,10.9,92,30.33,10.0,Calm,Calm,-,N/A,,Clear,0,2013-01-22 09:55:00
3:15 AM,14.2,11.5,89,30.33,10.0,Calm,Calm,-,N/A,,Clear,0,2013-01-22 10:15:00
3:35 AM,12.2,10.4,92,30.32,10.0,Calm,Calm,-,N/A,,Clear,0,2013-01-22 10:35:00
3:55 AM,11.5,7.7,85,30.31,10.0,Calm,Calm,-,N/A,,Clear,0,2013-01-22 10:55:00
4:15 AM,12.9,11.3,93,30.31,10.0,Calm,Calm,-,N/A,,Clear,0,2013-01-22 11:15:00
4:35 AM,13.3,11.5,93,30.31,10.0,Calm,Calm,-,N/A,,Clear,0,2013-01-22 11:35:00
4:55 AM,8.2,5.5,89,30.31,10.0,Calm,Calm,-,N/A,,Clear,0,2013-01-22 11:55:00
5:15 AM,10.0,7.9,91,30.32,10.0,Calm,Calm,-,N/A,,Clear,0,2013-01-22 12:15:00
5:35 AM,13.5,11.7,93,30.32,10.0,Calm,Calm,-,N/A,,Clear,0,2013-01-22 12:35:00
5:55 AM,13.3,11.7,93,30.34,10.0,Calm,Calm,-,N/A,,Clear,0,2013-01-22 12:55:00
6:15 AM,11.7,10.0,93,30.35,10.0,Calm,Calm,-,N/A,,Clear,0,2013-01-22 13:15:00
6:35 AM,9.9,7.9,92,30.35,10.0,NE,3.5,-,N/A,,Clear,50,2013-01-22 13:35:00
6:55 AM,10.8,8.4,90,30.35,10.0,Calm,Calm,-,N/A,,Clear,0,2013-01-22 13:55:00
7:15 AM,12.7,10.8,92,30.35,10.0,Calm,Calm,-,N/A,,Clear,0,2013-01-22 14:15:00
7:35 AM,12.9,10.4,90,30.35,10.0,Calm,Calm,-,N/A,,Clear,0,2013-01-22 14:35:00
7:55 AM,10.0,7.5,90,30.35,10.0,WNW,3.5,-,N/A,,Clear,290,2013-01-22 14:55:00
8:15 AM,14.9,11.1,85,30.35,10.0,Calm,Calm,-,N/A,,Clear,0,2013-01-22 15:15:00
8:35 AM,15.8,10.9,81,30.35,10.0,Calm,Calm,-,N/A,,Clear,0,2013-01-22 15:35:00
8:55 AM,19.8,11.3,70,30.36,10.0,Calm,Calm,-,N/A,,Clear,0,2013-01-22 15:55:00
9:15 AM,23.2,11.1,60,30.36,10.0,Calm,Calm,-,N/A,,Clear,0,2013-01-22 16:15:00
9:35 AM,27.1,10.9,51,30.36,10.0,Calm,Calm,-,N/A,,Clear,0,2013-01-22 16:35:00
9:55 AM,26.4,11.3,53,30.37,10.0,Calm,Calm,-,N/A,,Clear,0,2013-01-22 16:55:00
10:15 AM,30.6,10.2,43,30.36,10.0,Calm,Calm,-,N/A,,Clear,0,2013-01-22 17:15:00
10:35 AM,31.8,11.5,43,30.36,10.0,Calm,Calm,-,N/A,,Clear,0,2013-01-22 17:35:00
10:55 AM,33.1,11.1,40,30.36,10.0,South,4.6,-,N/A,,Clear,190,2013-01-22 17:55:00
11:15 AM,35.2,12.9,40,30.36,10.0,Calm,Calm,-,N/A,,Clear,0,2013-01-22 18:15:00
11:35 AM,35.4,13.1,40,30.35,10.0,Calm,Calm,-,N/A,,Clear,0,2013-01-22 18:35:00
11:55 AM,39.4,10.4,30,30.34,10.0,Calm,Calm,-,N/A,,Clear,0,2013-01-22 18:55:00
12:15 PM,40.1,11.8,32,30.34,10.0,SSW,4.6,-,N/A,,Clear,200,2013-01-22 19:15:00
12:35 PM,41.2,9.7,28,30.33,10.0,SSW,3.5,-,N/A,,Clear,210,2013-01-22 19:35:00
12:55 PM,41.9,11.1,28,30.32,10.0,South,4.6,-,N/A,,Clear,190,2013-01-22 19:55:00
1:15 PM,42.8,10.2,26,30.31,10.0,Calm,Calm,-,N/A,,Clear,0,2013-01-22 20:15:00
1:35 PM,43.7,10.9,26,30.31,10.0,SSW,3.5,-,N/A,,Clear,200,2013-01-22 20:35:00
1:55 PM,43.9,12.6,28,30.31,10.0,SSW,4.6,-,N/A,,Clear,210,2013-01-22 20:55:00
2:15 PM,44.6,11.3,26,30.31,10.0,SW,4.6,-,N/A,,Clear,220,2013-01-22 21:15:00
2:35 PM,44.4,11.5,26,30.31,10.0,SW,4.6,-,N/A,,Clear,220,2013-01-22 21:35:00
2:55 PM,44.6,11.3,26,30.31,10.0,Calm,Calm,-,N/A,,Clear,0,2013-01-22 21:55:00
3:15 PM,45.0,12.2,27,30.31,10.0,SW,3.5,-,N/A,,Clear,230,2013-01-22 22:15:00
3:35 PM,44.8,13.3,28,30.32,10.0,Calm,Calm,-,N/A,,Clear,0,2013-01-22 22:35:00
3:55 PM,45.0,13.5,28,30.32,10.0,SW,3.5,-,N/A,,Clear,220,2013-01-22 22:55:00
4:15 PM,44.2,14.4,30,30.32,10.0,Calm,Calm,-,N/A,,Clear,0,2013-01-22 23:15:00
4:35 PM,42.8,14.2,31,30.32,10.0,Calm,Calm,-,N/A,,Clear,0,2013-01-22 23:35:00
4:55 PM,38.5,16.9,42,30.32,10.0,Calm,Calm,-,N/A,,Clear,0,2013-01-22 23:55:00
5:15 PM,33.1,18.3,55,30.32,10.0,Calm,Calm,-,N/A,,Clear,0,2013-01-23 00:15:00
5:35 PM,32.5,19.0,58,30.33,10.0,Calm,Calm,-,N/A,,Clear,0,2013-01-23 00:35:00
5:55 PM,30.6,17.4,58,30.33,10.0,Calm,Calm,-,N/A,,Clear,0,2013-01-23 00:55:00
6:15 PM,28.9,18.5,65,30.34,10.0,Calm,Calm,-,N/A,,Clear,0,2013-01-23 01:15:00
6:35 PM,28.2,17.1,63,30.34,10.0,Calm,Calm,-,N/A,,Clear,0,2013-01-23 01:35:00
6:55 PM,26.4,17.6,69,30.35,10.0,Calm,Calm,-,N/A,,Clear,0,2013-01-23 01:55:00
7:15 PM,24.3,15.6,70,30.35,10.0,Calm,Calm,-,N/A,,Clear,0,2013-01-23 02:15:00
7:35 PM,26.2,16.5,67,30.35,10.0,Calm,Calm,-,N/A,,Clear,0,2013-01-23 02:35:00
7:55 PM,25.3,16.3,69,30.35,10.0,Calm,Calm,-,N/A,,Clear,0,2013-01-23 02:55:00
8:15 PM,22.5,15.3,74,30.36,10.0,Calm,Calm,-,N/A,,Clear,0,2013-01-23 03:15:00
8:35 PM,21.0,12.9,71,30.36,10.0,Calm,Calm,-,N/A,,Clear,0,2013-01-23 03:35:00
8:55 PM,21.7,14.7,74,30.36,10.0,Calm,Calm,-,N/A,,Clear,0,2013-01-23 03:55:00
9:15 PM,21.4,12.9,70,30.36,10.0,Calm,Calm,-,N/A,,Clear,0,2013-01-23 04:15:00
9:55 PM,22.3,14.7,73,30.36,10.0,Calm,Calm,-,N/A,,Clear,0,2013-01-23 04:55:00
10:15 PM,19.4,14.0,80,30.36,10.0,Calm,Calm,-,N/A,,Clear,0,2013-01-23 05:15:00
10:35 PM,21.4,13.8,73,30.37,10.0,Calm,Calm,-,N/A,,Clear,0,2013-01-23 05:35:00
10:55 PM,16.3,12.6,85,30.37,10.0,Calm,Calm,-,N/A,,Clear,0,2013-01-23 05:55:00
11:15 PM,14.2,10.0,84,30.37,10.0,Calm,Calm,-,N/A,,Clear,0,2013-01-23 06:15:00
11:35 PM,15.3,11.5,85,30.37,10.0,Calm,Calm,-,N/A,,Clear,0,2013-01-23 06:35:00
11:55 PM,15.3,12.2,88,30.37,10.0,Calm,Calm,-,N/A,,Clear,0,2013-01-23 06:55:00